Terminal Aerodrome Forecast
Issued by NWS

Home | Current Version | Previous Version | Text Only | Print | Product List | Glossary On
Versions: 1 2 3 4 5 6 7 8 9 10 11 12
000
FTPQ31 PGUM 142328
TAFGUM
TAF

TAF
PTYA 142327Z 1500/1524 VRB07KT P6SM VCSH SCT018 SCT030
      TEMPO 1502/1506 26012G22KT 4SM SHRA SCT015 OVC030=

USA.gov is the U.S. government's official web portal to all federal, state and local government web resources and services.